Chestnut Grove, Alabama
Current Conditions -  °F | °C
As of 1:56 AM on Friday 19 Dec 2014 (Local Time) from KSXS Reporting Station
Broken Clouds Broken Clouds  
Wind Chill: 49°   Ceiling: 11000
Heat Index: 49°   Visibility: 10mi
Dew Point: 36°   Wind: 2mph
Humidity: 60%   Direction: NA
Pressure: 30.16"   Gusts: NA
Location:  31.5584°N, 86.0569°W
Report Text: KSXS 190756Z AUTO VRB02KT 10SM SCT050 BKN110 10/02 A3016 RMK AO2 SLP215 T00970022
Loading
Personal Weather Stations






























Interactive Weather Map New forecast layout! Learn more

10-Day Weather Forecast

Advertisements
Track Severe Weather on mobile